Time;durP1;ratioP1;P1;durP2;ratioP2;P2;SDS_P1;SDS_P2;PMS_P1;PMS_P2;Temp;Humidity;BMP_temperature;BMP_pressure;BME280_temperature;BME280_humidity;BME280_pressure;Samples;Min_cycle;Max_cycle;Signal;HPM_P1;HPM_P2
2023/05/25 00:00:33;;;;;;;5.30;3.25;;;19.40;47.40;;;;;;5095120;28;20186;-76
2023/05/25 00:03:02;;;;;;;9.55;3.90;;;19.30;47.40;;;;;;5095133;28;20214;-76
2023/05/25 00:05:29;;;;;;;6.05;3.60;;;19.30;47.40;;;;;;5077031;28;20231;-75
2023/05/25 00:07:59;;;;;;;5.03;3.40;;;19.40;47.50;;;;;;5076869;28;20218;-75
2023/05/25 00:10:26;;;;;;;5.13;3.28;;;19.40;47.50;;;;;;5094573;28;20670;-76
2023/05/25 00:12:55;;;;;;;9.70;3.58;;;19.40;47.50;;;;;;5094778;28;20325;-75
2023/05/25 00:15:22;;;;;;;5.95;3.72;;;19.30;47.50;;;;;;5094755;28;20195;-75
2023/05/25 00:17:49;;;;;;;6.10;3.30;;;19.30;47.50;;;;;;5094917;28;20210;-76
2023/05/25 00:20:16;;;;;;;5.78;3.13;;;19.30;47.50;;;;;;5093319;28;20648;-75
2023/05/25 00:22:45;;;;;;;6.20;3.22;;;19.30;47.50;;;;;;5076561;28;20224;-75
2023/05/25 00:25:13;;;;;;;7.75;3.65;;;19.30;47.50;;;;;;5114401;28;20197;-76
2023/05/25 00:27:40;;;;;;;5.82;3.35;;;19.30;47.50;;;;;;5096491;28;20221;-76
2023/05/25 00:30:08;;;;;;;8.13;3.75;;;19.30;47.60;;;;;;5114933;28;20192;-76
2023/05/25 00:32:35;;;;;;;4.80;3.40;;;19.30;47.60;;;;;;5114694;28;20225;-76
2023/05/25 00:35:02;;;;;;;6.22;3.42;;;19.30;47.70;;;;;;5114646;28;20742;-76
2023/05/25 00:37:29;;;;;;;7.22;3.33;;;19.30;47.70;;;;;;5114780;28;20228;-76
2023/05/25 00:39:56;;;;;;;5.25;3.40;;;19.30;47.70;;;;;;5114772;28;20543;-76
2023/05/25 00:42:26;;;;;;;8.63;3.60;;;19.30;47.70;;;;;;5114562;28;20181;-76
2023/05/25 00:44:54;;;;;;;7.20;3.50;;;19.30;47.80;;;;;;5114668;28;20192;-75
2023/05/25 00:47:21;;;;;;;9.98;3.60;;;19.30;47.70;;;;;;5114652;28;20189;-76
2023/05/25 00:49:48;;;;;;;5.97;3.72;;;19.30;47.80;;;;;;5114321;28;20221;-76
2023/05/25 00:52:15;;;;;;;8.93;3.30;;;19.30;47.80;;;;;;5114214;28;20694;-76
2023/05/25 00:54:43;;;;;;;6.22;3.95;;;19.30;47.80;;;;;;5114275;28;20607;-75
2023/05/25 00:57:15;;;;;;;7.43;3.63;;;19.20;47.80;;;;;;5114118;28;20562;-75
2023/05/25 00:59:47;;;;;;;5.82;3.60;;;19.20;47.80;;;;;;5114476;28;20182;-75
2023/05/25 01:02:16;;;;;;;7.32;3.50;;;19.20;47.90;;;;;;5114181;28;20382;-75
2023/05/25 01:04:45;;;;;;;5.40;3.35;;;19.20;47.90;;;;;;5113997;28;20659;-75
2023/05/25 01:07:18;;;;;;;6.22;3.40;;;19.20;47.90;;;;;;5114228;28;20186;-76
2023/05/25 01:09:46;;;;;;;6.97;4.00;;;19.20;47.90;;;;;;5114182;28;20189;-76
2023/05/25 01:12:15;;;;;;;6.43;3.47;;;19.30;48.60;;;;;;5113992;28;20213;-75
2023/05/25 01:14:47;;;;;;;9.77;3.70;;;19.20;47.90;;;;;;5113603;28;20645;-76
2023/05/25 01:17:16;;;;;;;8.55;3.67;;;19.20;47.90;;;;;;5113703;28;20231;-75
2023/05/25 01:19:44;;;;;;;5.55;3.50;;;19.20;47.90;;;;;;5113882;28;20246;-76
2023/05/25 01:22:20;;;;;;;6.53;3.50;;;19.20;48.00;;;;;;5113611;28;20205;-74
2023/05/25 01:24:51;;;;;;;7.57;4.00;;;19.20;48.10;;;;;;5113823;28;20181;-75
2023/05/25 01:27:22;;;;;;;6.07;3.53;;;19.20;48.10;;;;;;5095815;28;20185;-74
2023/05/25 01:29:50;;;;;;;6.22;3.50;;;19.20;48.10;;;;;;5095659;28;20185;-75
2023/05/25 01:32:19;;;;;;;8.32;3.50;;;19.20;48.20;;;;;;5113104;28;20316;-76
2023/05/25 01:34:48;;;;;;;5.50;3.50;;;19.20;48.10;;;;;;5113743;28;20192;-74
2023/05/25 01:37:22;;;;;;;6.40;3.53;;;19.20;48.20;;;;;;5113642;28;20185;-75
2023/05/25 01:39:50;;;;;;;4.40;3.20;;;19.20;48.20;;;;;;5095948;28;20223;-74
2023/05/25 01:42:17;;;;;;;7.25;3.72;;;19.20;48.20;;;;;;5095146;28;20654;-74
2023/05/25 01:44:44;;;;;;;6.75;3.78;;;19.10;48.10;;;;;;5078247;28;20622;-74
2023/05/25 01:47:19;;;;;;;5.78;3.35;;;19.10;48.20;;;;;;5113488;28;20535;-74
2023/05/25 01:49:56;;;;;;;8.40;3.72;;;19.10;48.20;;;;;;5112816;28;20231;-75
2023/05/25 01:52:30;;;;;;;6.15;3.67;;;19.10;48.20;;;;;;5112789;28;20213;-75
2023/05/25 01:55:03;;;;;;;5.65;3.53;;;19.10;48.20;;;;;;5113705;28;20276;-76
2023/05/25 01:57:31;;;;;;;5.13;3.30;;;19.10;48.20;;;;;;5113226;28;20185;-76
2023/05/25 02:00:01;;;;;;;8.65;3.80;;;19.10;48.30;;;;;;5113007;28;20192;-77
2023/05/25 02:02:31;;;;;;;6.47;3.65;;;19.10;48.30;;;;;;5094832;28;20280;-76
2023/05/25 02:04:58;;;;;;;6.13;3.78;;;19.10;48.30;;;;;;5113184;28;20196;-77
2023/05/25 02:07:27;;;;;;;5.97;3.42;;;19.10;48.40;;;;;;5113047;28;20189;-76
2023/05/25 02:09:54;;;;;;;5.72;3.35;;;19.10;48.30;;;;;;5113137;28;20195;-76
2023/05/25 02:12:21;;;;;;;6.22;3.67;;;19.10;48.40;;;;;;5112694;28;20711;-76
2023/05/25 02:14:48;;;;;;;7.70;3.95;;;19.10;48.50;;;;;;5113000;28;20300;-77
2023/05/25 02:17:16;;;;;;;8.70;3.63;;;19.10;48.40;;;;;;5112687;28;20677;-77
2023/05/25 02:19:44;;;;;;;9.70;3.95;;;19.10;48.40;;;;;;5112637;28;20578;-76
2023/05/25 02:22:11;;;;;;;6.53;3.50;;;19.10;48.50;;;;;;5112889;28;20246;-76
2023/05/25 02:24:40;;;;;;;6.07;3.60;;;19.10;48.50;;;;;;5112751;28;20209;-77
2023/05/25 02:27:07;;;;;;;9.02;3.70;;;19.10;48.50;;;;;;5112883;28;20197;-77
2023/05/25 02:29:34;;;;;;;6.53;3.78;;;19.10;48.60;;;;;;5112949;28;20223;-76
2023/05/25 02:32:01;;;;;;;7.50;3.20;;;19.10;48.60;;;;;;5112641;28;20211;-76
2023/05/25 02:34:28;;;;;;;6.05;3.60;;;19.10;48.60;;;;;;5112965;28;20232;-76
2023/05/25 02:36:55;;;;;;;5.53;3.38;;;19.00;48.50;;;;;;5112736;28;20189;-76
2023/05/25 02:39:22;;;;;;;6.22;3.80;;;19.10;48.60;;;;;;5112990;28;20236;-76
2023/05/25 02:41:50;;;;;;;6.70;3.38;;;19.10;48.60;;;;;;5112732;28;20181;-75
2023/05/25 02:44:17;;;;;;;6.55;3.60;;;19.10;48.60;;;;;;5114755;28;20219;-76
2023/05/25 02:46:44;;;;;;;5.70;3.45;;;19.10;48.70;;;;;;5116992;28;20193;-76
2023/05/25 02:49:11;;;;;;;6.53;3.53;;;19.00;48.60;;;;;;5116808;28;20217;-77
2023/05/25 02:51:38;;;;;;;6.20;3.80;;;19.10;48.60;;;;;;5116438;28;20228;-77
2023/05/25 02:54:05;;;;;;;5.72;3.55;;;19.00;48.50;;;;;;5116617;28;20602;-75
2023/05/25 02:56:32;;;;;;;5.15;3.28;;;19.00;48.60;;;;;;5116725;28;20217;-77
2023/05/25 02:59:00;;;;;;;6.22;3.38;;;19.10;48.70;;;;;;5116478;28;20217;-76
2023/05/25 03:01:29;;;;;;;5.68;3.50;;;19.00;48.70;;;;;;5116727;28;20185;-76
2023/05/25 03:03:57;;;;;;;5.75;3.80;;;19.00;48.70;;;;;;5116710;28;20230;-76
2023/05/25 03:06:24;;;;;;;6.55;3.67;;;19.00;48.70;;;;;;5116159;28;20189;-76
2023/05/25 03:08:51;;;;;;;5.28;3.55;;;19.00;48.70;;;;;;5116704;28;20209;-76
2023/05/25 03:11:18;;;;;;;6.13;3.10;;;19.00;48.70;;;;;;5116465;28;20235;-76
2023/05/25 03:13:46;;;;;;;7.80;3.60;;;19.00;48.70;;;;;;5115973;28;20695;-76
2023/05/25 03:16:14;;;;;;;7.13;3.75;;;19.00;48.70;;;;;;5116438;28;20186;-76
2023/05/25 03:18:41;;;;;;;9.13;3.90;;;19.00;48.70;;;;;;5116315;28;20220;-76
2023/05/25 03:21:08;;;;;;;8.07;3.70;;;19.00;48.80;;;;;;5116330;28;20186;-76
2023/05/25 03:23:35;;;;;;;5.68;3.45;;;19.00;48.80;;;;;;5116017;28;20216;-76
2023/05/25 03:26:02;;;;;;;6.82;3.90;;;19.00;48.80;;;;;;5116243;28;20189;-76
2023/05/25 03:28:29;;;;;;;5.60;3.60;;;19.00;48.80;;;;;;5116205;28;20212;-74
2023/05/25 03:30:56;;;;;;;9.18;3.95;;;19.00;48.90;;;;;;5116079;28;20181;-76
2023/05/25 03:33:24;;;;;;;6.63;3.90;;;19.00;48.90;;;;;;5115968;28;20236;-75
2023/05/25 03:35:51;;;;;;;5.88;3.60;;;19.00;48.90;;;;;;5115714;28;20634;-76
2023/05/25 03:38:19;;;;;;;6.63;4.10;;;18.90;48.90;;;;;;5115950;28;20245;-75
2023/05/25 03:40:46;;;;;;;6.40;3.67;;;19.00;49.00;;;;;;5115959;28;20185;-76
2023/05/25 03:43:13;;;;;;;4.57;3.60;;;19.00;48.90;;;;;;5077209;28;20271;-76
2023/05/25 03:45:40;;;;;;;7.72;4.40;;;18.90;48.90;;;;;;5115908;28;20186;-76
2023/05/25 03:48:07;;;;;;;7.18;4.20;;;18.90;48.90;;;;;;5097803;28;20215;-76
2023/05/25 03:50:36;;;;;;;8.10;4.20;;;19.00;49.00;;;;;;5115415;28;20232;-75
2023/05/25 03:53:03;;;;;;;7.50;4.50;;;18.90;49.00;;;;;;5097318;28;20241;-75
2023/05/25 03:55:31;;;;;;;8.68;4.50;;;18.90;49.00;;;;;;5115546;28;20200;-76
2023/05/25 03:57:58;;;;;;;6.60;3.95;;;18.90;48.90;;;;;;5115555;28;20220;-75
2023/05/25 04:00:25;;;;;;;6.75;3.83;;;18.90;49.00;;;;;;5115478;28;20194;-76
2023/05/25 04:02:53;;;;;;;7.65;4.53;;;18.90;49.00;;;;;;5115059;28;20566;-76
2023/05/25 04:05:20;;;;;;;7.70;4.30;;;18.90;49.00;;;;;;5097553;28;20207;-75
2023/05/25 04:07:48;;;;;;;9.20;4.00;;;18.90;49.00;;;;;;5097274;28;20208;-75
2023/05/25 04:10:15;;;;;;;10.23;4.10;;;18.90;49.00;;;;;;5115397;28;20200;-75
2023/05/25 04:12:42;;;;;;;5.80;3.97;;;18.90;49.00;;;;;;5114755;28;20196;-76
2023/05/25 04:15:12;;;;;;;8.02;4.25;;;18.90;49.10;;;;;;5115337;28;20189;-75
2023/05/25 04:17:40;;;;;;;8.35;4.10;;;18.90;49.10;;;;;;5115345;28;20185;-75
2023/05/25 04:20:09;;;;;;;5.95;3.90;;;18.90;49.10;;;;;;5115115;28;20196;-77
2023/05/25 04:22:37;;;;;;;6.88;4.15;;;18.90;49.10;;;;;;5115118;28;20193;-77
2023/05/25 04:25:06;;;;;;;8.80;4.82;;;18.90;49.20;;;;;;5097419;28;20262;-76
2023/05/25 04:27:33;;;;;;;7.20;4.18;;;18.90;49.20;;;;;;5097094;28;20185;-76
2023/05/25 04:30:01;;;;;;;6.80;4.10;;;18.90;49.20;;;;;;5114963;28;20213;-75
2023/05/25 04:32:28;;;;;;;7.78;4.10;;;18.90;49.20;;;;;;5114889;28;20263;-75
2023/05/25 04:34:55;;;;;;;7.13;3.78;;;18.90;49.20;;;;;;5115046;28;20232;-77
2023/05/25 04:37:26;;;;;;;8.20;3.95;;;18.90;49.20;;;;;;5114451;28;20635;-77
2023/05/25 04:39:53;;;;;;;6.20;3.83;;;18.90;49.20;;;;;;5115168;28;20262;-77
2023/05/25 04:42:22;;;;;;;6.38;3.95;;;18.90;49.90;;;;;;5096353;28;20587;-76
2023/05/25 04:44:50;;;;;;;9.00;3.97;;;18.80;49.20;;;;;;5114748;28;20240;-76
2023/05/25 04:47:18;;;;;;;8.30;4.38;;;18.80;49.20;;;;;;5114320;28;20632;-76
2023/05/25 04:49:45;;;;;;;7.28;4.25;;;18.90;49.30;;;;;;5114100;28;20691;-75
2023/05/25 04:52:11;;;;;;;7.28;4.53;;;18.80;49.20;;;;;;5096177;28;20239;-74
2023/05/25 04:54:38;;;;;;;8.55;4.38;;;18.80;49.30;;;;;;5114538;28;20289;-74
2023/05/25 04:57:06;;;;;;;6.72;4.03;;;18.80;49.30;;;;;;5114485;28;20197;-75
2023/05/25 04:59:35;;;;;;;7.60;4.20;;;18.90;49.30;;;;;;5096342;28;20221;-74
2023/05/25 05:02:02;;;;;;;7.18;4.03;;;18.80;49.30;;;;;;5113955;28;20186;-74
2023/05/25 05:04:29;;;;;;;8.77;4.35;;;18.80;49.40;;;;;;5114450;28;20219;-77
2023/05/25 05:06:56;;;;;;;6.85;4.30;;;18.90;49.40;;;;;;5113103;28;20201;-75
2023/05/25 05:09:23;;;;;;;8.50;4.40;;;18.80;49.40;;;;;;5096131;28;20213;-75
2023/05/25 05:11:50;;;;;;;9.27;4.57;;;18.80;49.40;;;;;;5095843;28;20216;-75
2023/05/25 05:14:18;;;;;;;7.22;4.47;;;18.80;49.40;;;;;;5114035;28;20649;-74
2023/05/25 05:16:46;;;;;;;8.63;4.20;;;18.80;49.50;;;;;;5114068;28;20186;-75
2023/05/25 05:19:13;;;;;;;7.88;3.95;;;18.80;49.50;;;;;;5114035;28;20209;-74
2023/05/25 05:21:40;;;;;;;5.57;4.15;;;18.80;49.50;;;;;;5113648;28;20647;-75
2023/05/25 05:24:08;;;;;;;8.10;4.32;;;18.80;49.50;;;;;;5113940;28;20217;-75
2023/05/25 05:26:35;;;;;;;7.25;4.03;;;18.80;49.60;;;;;;5113918;28;20190;-75
2023/05/25 05:29:03;;;;;;;9.88;4.05;;;18.80;49.60;;;;;;5113787;28;20209;-75
2023/05/25 05:31:30;;;;;;;6.57;3.58;;;18.80;49.60;;;;;;5113656;28;20192;-74
2023/05/25 05:33:59;;;;;;;7.32;4.03;;;18.80;49.60;;;;;;5113824;28;20229;-75
2023/05/25 05:36:28;;;;;;;6.05;3.80;;;18.80;49.60;;;;;;5113465;28;20276;-76
2023/05/25 05:38:55;;;;;;;7.95;3.72;;;18.80;49.70;;;;;;5113781;28;20220;-76
2023/05/25 05:41:22;;;;;;;8.52;3.83;;;18.80;49.70;;;;;;5113242;28;20651;-75
2023/05/25 05:43:49;;;;;;;7.78;3.65;;;18.90;49.80;;;;;;5113606;28;20220;-75
2023/05/25 05:46:16;;;;;;;7.95;3.90;;;18.80;49.80;;;;;;5113304;28;20181;-76
2023/05/25 05:48:43;;;;;;;7.85;4.15;;;18.80;49.90;;;;;;5113497;28;20219;-76
2023/05/25 05:51:12;;;;;;;7.97;3.90;;;18.80;49.90;;;;;;5113601;28;20235;-75
2023/05/25 05:53:40;;;;;;;8.65;3.90;;;18.80;49.90;;;;;;5113178;28;20262;-76
2023/05/25 05:56:16;;;;;;;9.25;4.07;;;18.90;50.00;;;;;;5113362;28;20199;-76
2023/05/25 05:58:43;;;;;;;5.60;3.83;;;18.90;50.00;;;;;;5112973;28;20224;-76
2023/05/25 06:01:10;;;;;;;7.45;3.83;;;18.80;49.90;;;;;;5113278;28;20753;-75
2023/05/25 06:03:38;;;;;;;10.95;3.88;;;18.90;50.10;;;;;;5113315;28;20582;-78
2023/05/25 06:06:05;;;;;;;9.25;3.55;;;18.90;50.00;;;;;;5056525;28;20203;-77
2023/05/25 06:08:35;;;;;;;7.97;3.63;;;19.00;50.10;;;;;;5091705;28;20308;-77
2023/05/25 06:11:02;;;;;;;5.72;3.45;;;19.10;50.20;;;;;;5092879;28;20198;-77
2023/05/25 06:13:29;;;;;;;7.78;3.45;;;19.10;50.10;;;;;;5091937;28;20743;-77
2023/05/25 06:15:56;;;;;;;8.68;4.05;;;19.20;50.20;;;;;;5092249;28;20237;-77
2023/05/25 06:18:23;;;;;;;8.30;4.38;;;19.30;50.10;;;;;;5091387;28;20585;-78
2023/05/25 06:20:51;;;;;;;6.45;3.80;;;19.30;50.00;;;;;;5092586;28;20273;-77
2023/05/25 06:23:18;;;;;;;7.28;3.78;;;19.40;50.10;;;;;;5092290;28;20277;-79
2023/05/25 06:25:47;;;;;;;7.75;3.85;;;19.40;50.00;;;;;;5074635;28;20201;-77
2023/05/25 06:28:15;;;;;;;9.82;3.90;;;19.50;50.10;;;;;;5092047;28;20182;-78
2023/05/25 06:30:42;;;;;;;8.95;3.50;;;19.50;50.00;;;;;;5092253;28;20666;-78
2023/05/25 06:33:09;;;;;;;9.40;3.50;;;19.50;50.00;;;;;;5091681;28;20632;-78
2023/05/25 06:35:36;;;;;;;5.78;3.50;;;19.60;50.00;;;;;;5074086;28;20260;-77
2023/05/25 06:38:03;;;;;;;8.00;3.85;;;19.70;50.00;;;;;;5091932;28;20192;-78
2023/05/25 06:40:30;;;;;;;6.97;3.60;;;19.70;50.00;;;;;;5074051;28;20209;-78
2023/05/25 06:43:00;;;;;;;10.80;3.70;;;19.70;49.90;;;;;;5043858;28;20500;-77
2023/05/25 06:45:29;;;;;;;7.43;3.45;;;19.80;50.00;;;;;;5072090;28;20696;-78
2023/05/25 06:47:56;;;;;;;7.47;3.40;;;19.80;50.00;;;;;;5072019;28;20186;-77
2023/05/25 06:50:24;;;;;;;7.40;3.40;;;19.90;50.00;;;;;;5072198;28;20658;-76
2023/05/25 06:52:51;;;;;;;7.35;3.90;;;19.90;50.00;;;;;;5074293;28;20699;-78
2023/05/25 06:55:18;;;;;;;6.25;3.38;;;19.90;49.90;;;;;;5061031;28;20230;-78
2023/05/25 06:57:45;;;;;;;7.43;3.55;;;20.00;50.00;;;;;;5083292;28;20729;-78
2023/05/25 07:00:16;;;;;;;12.73;3.83;;;20.00;49.80;;;;;;5088677;28;20217;-78
2023/05/25 07:02:43;;;;;;;6.80;3.30;;;20.00;49.90;;;;;;5066584;28;20201;-78
2023/05/25 07:05:10;;;;;;;7.13;3.60;;;20.00;49.80;;;;;;5070452;28;20711;-77
2023/05/25 07:07:38;;;;;;;9.07;3.80;;;20.10;49.80;;;;;;5052621;28;20187;-77
2023/05/25 07:10:07;;;;;;;10.07;3.35;;;20.10;49.80;;;;;;5070588;28;20319;-79
2023/05/25 07:12:34;;;;;;;7.70;3.58;;;20.10;49.70;;;;;;5055339;28;20190;-78
2023/05/25 07:15:01;;;;;;;9.10;3.83;;;20.10;49.80;;;;;;5071523;28;20258;-78
2023/05/25 07:17:30;;;;;;;8.80;3.47;;;20.10;49.70;;;;;;5070428;28;20210;-79
2023/05/25 07:19:57;;;;;;;7.00;3.30;;;20.10;49.60;;;;;;5070415;28;20226;-78
2023/05/25 07:22:25;;;;;;;7.15;3.22;;;20.10;49.50;;;;;;5035611;28;20238;-79
2023/05/25 07:24:52;;;;;;;9.18;3.40;;;20.20;49.60;;;;;;5052718;28;20225;-78
2023/05/25 07:27:19;;;;;;;11.30;3.10;;;20.20;49.60;;;;;;5070756;28;20198;-78
2023/05/25 07:29:46;;;;;;;10.23;3.13;;;20.20;49.60;;;;;;5072914;28;20309;-78
2023/05/25 07:32:13;;;;;;;6.88;3.60;;;20.20;49.60;;;;;;5094284;28;20215;-78
2023/05/25 07:34:42;;;;;;;9.35;3.13;;;20.20;49.60;;;;;;5093777;28;20332;-78
2023/05/25 07:37:09;;;;;;;7.03;3.13;;;20.20;49.50;;;;;;5093788;28;20189;-79
2023/05/25 07:39:36;;;;;;;7.63;3.13;;;20.20;49.50;;;;;;5093335;28;20253;-82
2023/05/25 07:42:03;;;;;;;7.63;3.33;;;20.30;49.80;;;;;;5089869;28;20229;-83
2023/05/25 07:44:31;;;;;;;12.80;3.50;;;20.30;49.90;;;;;;5083123;28;20720;-78
2023/05/25 07:46:58;;;;;;;5.43;2.90;;;20.30;49.90;;;;;;5067811;28;20206;-78
2023/05/25 07:49:25;;;;;;;4.97;2.95;;;20.30;49.70;;;;;;5072463;28;20217;-78
2023/05/25 07:51:53;;;;;;;6.30;3.15;;;20.30;49.80;;;;;;5073889;28;20230;-87
2023/05/25 07:54:20;;;;;;;8.50;3.05;;;20.30;49.70;;;;;;5072912;28;20230;-82
2023/05/25 07:56:47;;;;;;;7.10;3.50;;;20.30;49.70;;;;;;5091358;28;20194;-82
2023/05/25 07:59:18;;;;;;;8.65;3.40;;;20.30;49.80;;;;;;5056666;28;20226;-84
2023/05/25 08:01:51;;;;;;;9.45;3.28;;;20.30;49.70;;;;;;5087375;28;20197;-83
2023/05/25 08:04:18;;;;;;;7.80;3.00;;;20.30;49.90;;;;;;5080062;28;20738;-85
2023/05/25 08:06:45;;;;;;;6.57;3.50;;;20.30;49.90;;;;;;5065183;28;20198;-80
2023/05/25 08:09:13;;;;;;;7.75;3.13;;;20.30;50.00;;;;;;5081453;28;20254;-80
2023/05/25 08:11:40;;;;;;;8.63;3.00;;;20.30;50.10;;;;;;5080134;28;20182;-79
2023/05/25 08:14:07;;;;;;;7.13;3.17;;;20.30;50.20;;;;;;5080493;28;20214;-79
2023/05/25 08:16:35;;;;;;;8.80;3.00;;;20.30;50.20;;;;;;5091485;28;20194;-78
2023/05/25 08:19:02;;;;;;;7.93;3.13;;;20.20;50.20;;;;;;5069352;28;20196;-79
2023/05/25 08:21:29;;;;;;;8.45;2.90;;;20.20;50.20;;;;;;5085234;28;20802;-79
2023/05/25 08:23:56;;;;;;;9.68;3.08;;;20.20;50.20;;;;;;5073630;28;20703;-79
2023/05/25 08:26:25;;;;;;;11.18;3.17;;;20.20;50.20;;;;;;5073148;28;20477;-81
2023/05/25 08:28:52;;;;;;;10.95;3.42;;;20.20;50.30;;;;;;5074720;28;20282;-80
2023/05/25 08:31:19;;;;;;;12.45;3.20;;;20.20;50.30;;;;;;5074236;28;20309;-80
2023/05/25 08:33:47;;;;;;;13.50;4.45;;;20.20;50.40;;;;;;5075368;28;20568;-80
2023/05/25 08:36:14;;;;;;;8.65;3.20;;;20.20;50.30;;;;;;5085936;28;20229;-77
2023/05/25 08:38:41;;;;;;;8.10;3.20;;;20.20;50.40;;;;;;5084249;28;20237;-81
2023/05/25 08:41:09;;;;;;;12.05;3.10;;;20.20;50.50;;;;;;5072173;28;20218;-78
2023/05/25 08:43:37;;;;;;;10.70;3.33;;;20.20;50.50;;;;;;5073377;28;20311;-80
2023/05/25 08:46:06;;;;;;;8.63;3.03;;;20.10;50.40;;;;;;5078174;28;20229;-79
2023/05/25 08:48:35;;;;;;;11.73;3.45;;;20.20;50.50;;;;;;5073485;28;20194;-81
2023/05/25 08:51:04;;;;;;;8.07;3.53;;;20.20;50.50;;;;;;5086244;28;20237;-79
2023/05/25 08:53:35;;;;;;;8.57;2.80;;;20.20;50.60;;;;;;5074243;28;20198;-77
2023/05/25 08:56:07;;;;;;;10.93;3.17;;;20.10;50.50;;;;;;5084550;28;20230;-81
2023/05/25 08:58:45;;;;;;;7.22;2.95;;;20.10;50.50;;;;;;5075635;28;20201;-80
2023/05/25 09:01:17;;;;;;;7.55;2.70;;;20.10;50.70;;;;;;5075382;28;20218;-80
2023/05/25 09:03:45;;;;;;;67.53;4.20;;;20.10;50.70;;;;;;5067972;28;20199;-80
2023/05/25 09:06:14;;;;;;;8.05;3.15;;;20.10;50.90;;;;;;5076379;28;20365;-82
2023/05/25 09:08:41;;;;;;;10.13;3.22;;;20.10;51.00;;;;;;5067279;28;20262;-81
2023/05/25 09:11:09;;;;;;;11.07;3.42;;;20.10;51.00;;;;;;5079287;28;20222;-79
2023/05/25 09:13:37;;;;;;;9.75;3.28;;;20.10;51.00;;;;;;5067933;28;20191;-79
2023/05/25 09:16:06;;;;;;;8.85;2.92;;;20.10;51.30;;;;;;5084645;28;20229;-79
2023/05/25 09:18:33;;;;;;;9.20;3.35;;;20.10;51.90;;;;;;5057557;28;20792;-80
2023/05/25 09:21:02;;;;;;;11.52;2.78;;;20.10;51.90;;;;;;5057621;28;20225;-79
2023/05/25 09:23:29;;;;;;;8.57;3.30;;;20.20;52.00;;;;;;5075067;28;20214;-78
2023/05/25 09:25:58;;;;;;;9.65;3.38;;;20.10;52.70;;;;;;5077536;28;20224;-78
2023/05/25 09:28:25;;;;;;;22.45;3.78;;;20.20;52.90;;;;;;5078552;28;20285;-78
2023/05/25 09:30:52;;;;;;;6.38;2.97;;;20.10;52.90;;;;;;5073449;28;20317;-79
2023/05/25 09:33:21;;;;;;;6.43;3.03;;;20.20;52.90;;;;;;5081226;28;20728;-81
2023/05/25 09:35:48;;;;;;;8.88;2.97;;;20.10;52.80;;;;;;5073129;28;20231;-81
2023/05/25 09:38:16;;;;;;;11.18;3.60;;;20.20;52.90;;;;;;5073279;28;20219;-84
2023/05/25 09:40:44;;;;;;;13.13;3.72;;;20.20;52.80;;;;;;5087559;28;20213;-79
2023/05/25 09:43:12;;;;;;;8.68;3.35;;;20.20;52.70;;;;;;5081755;28;20290;-82
2023/05/25 09:45:39;;;;;;;11.48;3.80;;;20.10;52.70;;;;;;5073118;28;20678;-82
2023/05/25 09:48:07;;;;;;;8.38;3.15;;;20.10;52.60;;;;;;5069024;28;20278;-78
2023/05/25 09:50:36;;;;;;;9.18;3.28;;;20.10;52.60;;;;;;5081042;28;20233;-82
2023/05/25 09:53:03;;;;;;;10.85;3.55;;;20.10;52.50;;;;;;5069995;28;20203;-82
2023/05/25 09:55:31;;;;;;;10.57;3.05;;;20.10;52.60;;;;;;5060243;28;20283;-79
2023/05/25 09:57:58;;;;;;;11.00;3.50;;;20.10;52.70;;;;;;5068984;28;20198;-84
2023/05/25 10:00:26;;;;;;;12.48;3.95;;;20.10;52.50;;;;;;5062137;28;20216;-77
2023/05/25 10:02:54;;;;;;;12.48;3.80;;;20.10;52.50;;;;;;5085887;28;20722;-76
2023/05/25 10:05:22;;;;;;;8.98;3.35;;;20.10;52.50;;;;;;5074355;28;20200;-77
2023/05/25 10:07:54;;;;;;;17.92;3.72;;;20.10;52.50;;;;;;5069398;28;20258;-81
2023/05/25 10:10:22;;;;;;;22.77;3.25;;;20.10;52.50;;;;;;5067694;28;20210;-78
2023/05/25 10:12:52;;;;;;;11.88;3.55;;;20.10;53.20;;;;;;5066920;28;20225;-82
2023/05/25 10:15:21;;;;;;;18.42;3.63;;;20.10;52.60;;;;;;5062873;28;20211;-79
2023/05/25 10:17:54;;;;;;;16.35;3.50;;;20.10;52.60;;;;;;5067101;28;20198;-76
2023/05/25 10:20:23;;;;;;;17.98;3.38;;;20.10;52.50;;;;;;5077368;28;20190;-77
2023/05/25 10:23:00;;;;;;;12.00;3.75;;;20.10;52.50;;;;;;5066569;28;20195;-77
2023/05/25 10:25:33;;;;;;;20.88;3.63;;;20.10;52.50;;;;;;5067601;28;20253;-81
2023/05/25 10:28:03;;;;;;;16.55;4.10;;;20.10;52.50;;;;;;5067031;28;20281;-78
2023/05/25 10:30:31;;;;;;;13.32;4.30;;;20.10;52.50;;;;;;5080404;28;20225;-79
2023/05/25 10:32:59;;;;;;;13.73;3.78;;;20.10;52.60;;;;;;5066658;28;20291;-76
2023/05/25 10:35:26;;;;;;;14.00;3.65;;;20.10;52.50;;;;;;5073266;28;20317;-77
2023/05/25 10:37:58;;;;;;;14.93;3.08;;;20.10;52.50;;;;;;5051134;28;20206;-76
2023/05/25 10:40:25;;;;;;;14.82;3.38;;;20.10;52.50;;;;;;5049270;28;20190;-77
2023/05/25 10:42:52;;;;;;;11.93;3.10;;;20.00;52.40;;;;;;5067104;28;20281;-77
2023/05/25 10:45:20;;;;;;;14.73;3.53;;;20.10;52.40;;;;;;5081516;28;20191;-79
2023/05/25 10:47:49;;;;;;;12.43;3.50;;;20.10;52.40;;;;;;5077320;28;20573;-77
2023/05/25 10:50:21;;;;;;;9.50;3.25;;;20.00;52.40;;;;;;5071905;28;20738;-76
2023/05/25 10:53:00;;;;;;;11.05;3.78;;;20.00;52.30;;;;;;5068817;28;20214;-78
2023/05/25 10:55:30;;;;;;;10.45;3.40;;;20.10;52.40;;;;;;5076376;28;20253;-79
2023/05/25 10:58:12;;;;;;;12.85;3.42;;;20.00;52.30;;;;;;5075633;28;20243;-77
2023/05/25 11:00:40;;;;;;;14.20;3.38;;;20.10;52.40;;;;;;5083245;28;20229;-77
2023/05/25 11:03:08;;;;;;;12.27;3.83;;;20.00;52.30;;;;;;5077576;28;20190;-78
2023/05/25 11:05:39;;;;;;;10.85;3.42;;;20.00;52.30;;;;;;5080605;28;20230;-77
2023/05/25 11:08:11;;;;;;;13.20;3.42;;;20.10;52.40;;;;;;5084578;28;20190;-77
2023/05/25 11:10:51;;;;;;;12.55;3.88;;;20.10;52.40;;;;;;5064871;28;20219;-77
2023/05/25 11:13:43;;;;;;;11.10;3.45;;;20.00;52.30;;;;;;5081687;28;20193;-77
2023/05/25 11:16:16;;;;;;;9.13;3.63;;;20.00;52.30;;;;;;5065722;28;20242;-78
2023/05/25 11:18:45;;;;;;;13.20;3.78;;;20.00;52.30;;;;;;5084544;28;20190;-76
2023/05/25 11:21:14;;;;;;;8.70;3.53;;;20.00;52.30;;;;;;5082723;28;20222;-77
2023/05/25 11:23:55;;;;;;;10.30;3.70;;;20.00;52.30;;;;;;5074418;28;20197;-79
2023/05/25 11:26:23;;;;;;;13.20;3.72;;;20.00;52.30;;;;;;5072895;28;20330;-78
2023/05/25 11:28:52;;;;;;;11.15;3.58;;;20.00;52.30;;;;;;5086739;28;20737;-80
2023/05/25 11:31:29;;;;;;;9.98;3.95;;;20.10;52.40;;;;;;5069822;28;20246;-78
2023/05/25 11:33:57;;;;;;;8.65;3.30;;;20.00;52.30;;;;;;5074628;28;20307;-78
2023/05/25 11:36:25;;;;;;;10.15;3.97;;;20.00;52.30;;;;;;5090711;28;20238;-77
2023/05/25 11:38:55;;;;;;;9.40;3.72;;;20.00;52.30;;;;;;5079988;28;20341;-78
2023/05/25 11:41:23;;;;;;;12.77;3.53;;;20.00;52.30;;;;;;5089970;28;20222;-77
2023/05/25 11:43:52;;;;;;;9.15;3.80;;;20.00;52.30;;;;;;5086830;28;20187;-80
2023/05/25 11:46:20;;;;;;;7.53;3.58;;;20.00;52.30;;;;;;5069552;28;20320;-79
2023/05/25 11:48:52;;;;;;;9.65;4.07;;;20.00;52.30;;;;;;5072248;28;20190;-78
2023/05/25 11:51:20;;;;;;;11.40;4.07;;;20.00;52.40;;;;;;5089746;28;20252;-77
2023/05/25 11:53:48;;;;;;;10.18;3.72;;;20.00;52.30;;;;;;5088134;28;20202;-77
2023/05/25 11:56:18;;;;;;;12.35;3.65;;;20.00;52.30;;;;;;5070096;28;20322;-82
2023/05/25 11:58:46;;;;;;;9.05;3.47;;;20.10;52.40;;;;;;5053677;28;20747;-82
2023/05/25 12:01:18;;;;;;;8.98;3.92;;;20.00;52.40;;;;;;5083009;28;20318;-82
2023/05/25 12:03:46;;;;;;;7.43;3.60;;;20.10;52.40;;;;;;5074243;28;20229;-82
2023/05/25 12:06:28;;;;;;;9.70;3.60;;;20.10;52.40;;;;;;5028405;28;20286;-78
2023/05/25 12:08:56;;;;;;;10.43;3.70;;;20.00;52.40;;;;;;5086909;28;20205;-79
2023/05/25 12:11:44;;;;;;;8.43;3.45;;;20.10;52.40;;;;;;5070448;28;20218;-79
2023/05/25 12:14:11;;;;;;;9.55;3.17;;;20.10;52.40;;;;;;5071081;28;20195;-79
2023/05/25 12:16:39;;;;;;;12.30;3.88;;;20.10;52.40;;;;;;5070012;28;20340;-79
2023/05/25 12:19:10;;;;;;;12.93;3.42;;;20.10;52.40;;;;;;5076341;28;20183;-83
2023/05/25 12:21:38;;;;;;;10.15;3.50;;;20.10;52.60;;;;;;5070046;28;20222;-82
2023/05/25 12:24:07;;;;;;;8.93;3.22;;;20.10;52.60;;;;;;5070843;28;20191;-82
2023/05/25 12:26:47;;;;;;;12.82;3.80;;;20.10;52.60;;;;;;5071525;28;20218;-83
2023/05/25 12:29:15;;;;;;;11.02;3.78;;;20.10;52.70;;;;;;5071990;28;20291;-78
2023/05/25 12:31:43;;;;;;;9.15;3.22;;;20.10;52.70;;;;;;5071433;28;20851;-80
2023/05/25 12:54:04;;;;;;;10.30;3.80;;;20.20;52.70;;;;;;4946441;29;20295;-77
2023/05/25 12:56:32;;;;;;;9.13;3.95;;;20.20;53.30;;;;;;4932015;29;20672;-80
2023/05/25 12:59:14;;;;;;;12.93;4.75;;;20.20;52.70;;;;;;4945788;29;20207;-79
2023/05/25 13:01:42;;;;;;;12.10;4.50;;;20.20;52.80;;;;;;4940080;29;20226;-80
2023/05/25 13:04:10;;;;;;;12.20;4.75;;;20.20;52.70;;;;;;4944810;29;20258;-79
2023/05/25 13:06:37;;;;;;;9.90;4.63;;;20.20;52.70;;;;;;4940782;29;20310;-78
2023/05/25 13:09:06;;;;;;;9.73;4.30;;;20.20;52.70;;;;;;4969501;28;20308;-79
2023/05/25 13:11:34;;;;;;;11.48;4.38;;;20.20;52.70;;;;;;4986790;28;20253;-78